createdAt,value
2023-10-17T00:00:35.294Z,1017.63
2023-10-17T00:01:35.281Z,1017.66
2023-10-17T00:02:35.263Z,1017.61
2023-10-17T00:03:35.345Z,1017.64
2023-10-17T00:04:35.373Z,1017.62
2023-10-17T00:05:35.374Z,1017.66
2023-10-17T00:06:35.229Z,1017.61
2023-10-17T00:07:35.222Z,1017.64
2023-10-17T00:08:35.220Z,1017.61
2023-10-17T00:09:35.260Z,1017.60
2023-10-17T00:10:35.213Z,1017.58
2023-10-17T00:11:35.214Z,1017.57
2023-10-17T00:12:35.206Z,1017.55
2023-10-17T00:13:35.213Z,1017.56
2023-10-17T00:14:35.198Z,1017.55
2023-10-17T00:15:35.195Z,1017.50
2023-10-17T00:16:35.188Z,1017.57
2023-10-17T00:17:35.253Z,1017.54
2023-10-17T00:18:35.237Z,1017.53
2023-10-17T00:19:35.208Z,1017.51
2023-10-17T00:20:35.175Z,1017.51
2023-10-17T00:21:35.174Z,1017.52
2023-10-17T00:22:35.169Z,1017.49
2023-10-17T00:23:35.164Z,1017.48
2023-10-17T00:24:35.254Z,1017.50
2023-10-17T00:25:35.151Z,1017.50
2023-10-17T00:26:35.148Z,1017.52
2023-10-17T00:27:35.144Z,1017.50
2023-10-17T00:28:35.170Z,1017.53
2023-10-17T00:29:35.138Z,1017.50
2023-10-17T00:30:35.208Z,1017.49
2023-10-17T00:31:35.130Z,1017.50
2023-10-17T00:32:35.187Z,1017.54
2023-10-17T00:33:35.187Z,1017.50
2023-10-17T00:34:35.125Z,1017.48
2023-10-17T00:35:35.120Z,1017.53
2023-10-17T00:36:35.126Z,1017.45
2023-10-17T00:37:35.109Z,1017.48
2023-10-17T00:38:35.107Z,1017.46
2023-10-17T00:39:35.176Z,1017.51
2023-10-17T00:40:35.100Z,1017.51
2023-10-17T00:41:35.098Z,1017.48
2023-10-17T00:42:35.150Z,1017.45
2023-10-17T00:43:35.093Z,1017.49
2023-10-17T00:44:35.095Z,1017.49
2023-10-17T00:45:35.147Z,1017.47
2023-10-17T00:46:37.813Z,1017.47
2023-10-17T00:47:35.105Z,1017.47
2023-10-17T00:48:35.118Z,1017.49
2023-10-17T00:49:35.112Z,1017.46
2023-10-17T00:50:35.077Z,1017.46
2023-10-17T00:51:35.105Z,1017.48
2023-10-17T00:52:35.057Z,1017.48
2023-10-17T00:53:35.067Z,1017.43
2023-10-17T00:54:35.065Z,1017.47
2023-10-17T00:55:35.050Z,1017.47
2023-10-17T00:56:35.052Z,1017.47
2023-10-17T00:57:35.076Z,1017.43
2023-10-17T00:58:35.038Z,1017.41
2023-10-17T00:59:35.041Z,1017.38
2023-10-17T01:00:35.133Z,1017.40
2023-10-17T01:01:35.031Z,1017.37
2023-10-17T01:02:35.050Z,1017.39
2023-10-17T01:03:35.030Z,1017.35
2023-10-17T01:04:35.040Z,1017.39
2023-10-17T01:05:35.041Z,1017.35
2023-10-17T01:06:35.034Z,1017.38
2023-10-17T01:07:35.011Z,1017.38
2023-10-17T01:08:35.000Z,1017.34
2023-10-17T01:09:35.006Z,1017.32
2023-10-17T01:10:35.004Z,1017.33
2023-10-17T01:11:34.995Z,1017.34
2023-10-17T01:12:35.034Z,1017.33
2023-10-17T01:13:35.074Z,1017.33
2023-10-17T01:14:34.982Z,1017.33
2023-10-17T01:15:35.048Z,1017.31
2023-10-17T01:16:35.035Z,1017.33
2023-10-17T01:17:35.008Z,1017.33
2023-10-17T01:18:34.994Z,1017.37
2023-10-17T01:19:34.970Z,1017.37
2023-10-17T01:20:34.970Z,1017.39
2023-10-17T01:21:35.029Z,1017.35
2023-10-17T01:22:34.952Z,1017.34
2023-10-17T01:23:34.952Z,1017.39
2023-10-17T01:24:34.974Z,1017.36
2023-10-17T01:25:34.945Z,1017.33
2023-10-17T01:26:34.939Z,1017.37
2023-10-17T01:27:34.974Z,1017.33
2023-10-17T01:28:34.935Z,1017.34
2023-10-17T01:29:34.932Z,1017.34
2023-10-17T01:30:35.042Z,1017.33
2023-10-17T01:31:34.930Z,1017.32
2023-10-17T01:32:34.948Z,1017.31
2023-10-17T01:33:34.952Z,1017.32
2023-10-17T01:34:34.913Z,1017.31
2023-10-17T01:35:34.910Z,1017.33
2023-10-17T01:36:34.904Z,1017.28
2023-10-17T01:37:34.928Z,1017.24
2023-10-17T01:38:34.903Z,1017.21
2023-10-17T01:39:34.896Z,1017.22
2023-10-17T01:40:34.888Z,1017.27
2023-10-17T01:41:34.887Z,1017.31
2023-10-17T01:42:34.898Z,1017.25
2023-10-17T01:43:34.885Z,1017.26
2023-10-17T01:44:34.875Z,1017.21
2023-10-17T01:45:34.942Z,1017.18
2023-10-17T01:46:34.913Z,1017.22
2023-10-17T01:47:34.964Z,1017.23
2023-10-17T01:48:34.919Z,1017.19
2023-10-17T01:49:34.860Z,1017.24
2023-10-17T01:50:34.863Z,1017.21
2023-10-17T01:51:34.900Z,1017.19
2023-10-17T01:52:34.842Z,1017.18
2023-10-17T01:53:34.872Z,1017.18
2023-10-17T01:54:34.900Z,1017.24
2023-10-17T01:55:34.862Z,1017.28
2023-10-17T01:56:34.833Z,1017.28
2023-10-17T01:57:34.868Z,1017.26
2023-10-17T01:58:34.823Z,1017.26
2023-10-17T01:59:34.838Z,1017.21
2023-10-17T02:00:34.935Z,1017.25
2023-10-17T02:01:34.839Z,1017.26
2023-10-17T02:02:34.832Z,1017.24
2023-10-17T02:03:34.841Z,1017.25
2023-10-17T02:04:34.840Z,1017.24
2023-10-17T02:05:34.803Z,1017.22
2023-10-17T02:06:34.906Z,1017.25
2023-10-17T02:07:34.793Z,1017.23
2023-10-17T02:08:34.787Z,1017.21
2023-10-17T02:09:34.857Z,1017.22
2023-10-17T02:10:35.009Z,1017.17
2023-10-17T02:11:34.794Z,1017.13
2023-10-17T02:12:34.808Z,1017.15
2023-10-17T02:13:34.778Z,1017.14
2023-10-17T02:14:34.770Z,1017.19
2023-10-17T02:15:34.820Z,1017.20
2023-10-17T02:16:34.801Z,1017.17
2023-10-17T02:17:34.779Z,1017.18
2023-10-17T02:18:34.769Z,1017.17
2023-10-17T02:19:34.764Z,1017.19
2023-10-17T02:20:34.752Z,1017.18
2023-10-17T02:21:34.769Z,1017.13
2023-10-17T02:22:34.742Z,1017.18
2023-10-17T02:23:34.758Z,1017.12
2023-10-17T02:24:34.775Z,1017.18
2023-10-17T02:25:34.759Z,1017.22
2023-10-17T02:26:34.726Z,1017.26
2023-10-17T02:27:34.750Z,1017.24
2023-10-17T02:28:34.726Z,1017.26
2023-10-17T02:29:34.723Z,1017.20
2023-10-17T02:30:34.758Z,1017.20
2023-10-17T02:31:34.750Z,1017.21
2023-10-17T02:32:34.726Z,1017.26
2023-10-17T02:33:34.770Z,1017.23
2023-10-17T02:34:34.698Z,1017.24
2023-10-17T02:35:34.703Z,1017.23
2023-10-17T02:36:34.734Z,1017.25
2023-10-17T02:37:34.695Z,1017.28
2023-10-17T02:38:34.686Z,1017.27
2023-10-17T02:39:34.786Z,1017.30
2023-10-17T02:40:34.675Z,1017.25
2023-10-17T02:41:34.721Z,1017.25
2023-10-17T02:42:34.758Z,1017.26
2023-10-17T02:43:34.671Z,1017.26
2023-10-17T02:44:34.661Z,1017.27
2023-10-17T02:45:34.726Z,1017.26
2023-10-17T02:46:34.657Z,1017.24
2023-10-17T02:47:34.709Z,1017.30
2023-10-17T02:48:34.686Z,1017.25
2023-10-17T02:49:34.651Z,1017.28
2023-10-17T02:50:34.646Z,1017.29
2023-10-17T02:51:34.677Z,1017.27
2023-10-17T02:52:34.640Z,1017.27
2023-10-17T02:53:34.643Z,1017.29
2023-10-17T02:54:34.697Z,1017.27
2023-10-17T02:55:34.632Z,1017.27
2023-10-17T02:56:34.625Z,1017.32
2023-10-17T02:57:34.944Z,1017.31
2023-10-17T02:58:34.616Z,1017.31
2023-10-17T02:59:34.628Z,1017.26
2023-10-17T03:00:34.824Z,1017.28
2023-10-17T03:01:34.690Z,1017.25
2023-10-17T03:02:34.640Z,1017.29
2023-10-17T03:03:34.745Z,1017.24
2023-10-17T03:04:34.642Z,1017.24
2023-10-17T03:05:34.599Z,1017.23
2023-10-17T03:06:34.622Z,1017.24
2023-10-17T03:07:34.588Z,1017.24
2023-10-17T03:08:34.590Z,1017.30
2023-10-17T03:09:34.641Z,1017.29
2023-10-17T03:10:34.582Z,1017.29
2023-10-17T03:11:34.575Z,1017.26
2023-10-17T03:12:34.592Z,1017.24
2023-10-17T03:13:34.595Z,1017.25
2023-10-17T03:14:34.568Z,1017.26
2023-10-17T03:15:34.591Z,1017.28
2023-10-17T03:16:34.604Z,1017.30
2023-10-17T03:17:34.605Z,1017.31
2023-10-17T03:18:34.580Z,1017.26
2023-10-17T03:19:34.552Z,1017.22
2023-10-17T03:20:34.542Z,1017.18
2023-10-17T03:21:34.581Z,1017.19
2023-10-17T03:22:34.541Z,1017.20
2023-10-17T03:23:34.537Z,1017.18
2023-10-17T03:24:34.582Z,1017.25
2023-10-17T03:25:34.732Z,1017.21
2023-10-17T03:26:34.522Z,1017.18
2023-10-17T03:27:34.547Z,1017.21
2023-10-17T03:28:34.559Z,1017.18
2023-10-17T03:29:34.532Z,1017.16
2023-10-17T03:30:34.568Z,1017.16
2023-10-17T03:31:34.566Z,1017.19
2023-10-17T03:32:34.539Z,1017.22
2023-10-17T03:33:34.542Z,1017.23
2023-10-17T03:34:34.493Z,1017.23
2023-10-17T03:35:34.492Z,1017.24
2023-10-17T03:36:34.509Z,1017.20
2023-10-17T03:37:34.483Z,1017.21
2023-10-17T03:38:34.474Z,1017.23
2023-10-17T03:39:34.504Z,1017.26
2023-10-17T03:40:34.469Z,1017.26
2023-10-17T03:41:34.468Z,1017.23
2023-10-17T03:42:34.480Z,1017.22
2023-10-17T03:43:34.464Z,1017.21
2023-10-17T03:44:34.453Z,1017.26
2023-10-17T03:45:34.578Z,1017.26
2023-10-17T03:46:34.446Z,1017.23
2023-10-17T03:47:34.448Z,1017.25
2023-10-17T03:48:34.477Z,1017.20
2023-10-17T03:49:34.438Z,1017.24
2023-10-17T03:50:34.435Z,1017.25
2023-10-17T03:51:34.586Z,1017.30
2023-10-17T03:52:34.542Z,1017.28
2023-10-17T03:53:34.424Z,1017.23
2023-10-17T03:54:34.461Z,1017.22
2023-10-17T03:55:34.431Z,1017.24
2023-10-17T03:56:34.411Z,1017.29
2023-10-17T03:57:34.433Z,1017.23
2023-10-17T03:58:34.408Z,1017.29
2023-10-17T03:59:34.404Z,1017.24
2023-10-17T04:00:34.442Z,1017.24
2023-10-17T04:01:34.433Z,1017.23
2023-10-17T04:02:34.458Z,1017.26
2023-10-17T04:03:34.416Z,1017.22
2023-10-17T04:04:34.991Z,1017.21
2023-10-17T04:05:34.389Z,1017.22
2023-10-17T04:06:34.448Z,1017.23
2023-10-17T04:07:34.380Z,1017.24
2023-10-17T04:08:34.370Z,1017.26
2023-10-17T04:09:34.409Z,1017.26
2023-10-17T04:10:34.361Z,1017.23
2023-10-17T04:11:34.367Z,1017.24
2023-10-17T04:12:34.382Z,1017.23
2023-10-17T04:13:34.353Z,1017.27
2023-10-17T04:14:34.348Z,1017.24
2023-10-17T04:15:34.379Z,1017.27
2023-10-17T04:16:34.351Z,1017.32
2023-10-17T04:17:34.374Z,1017.26
2023-10-17T04:18:34.416Z,1017.33
2023-10-17T04:19:34.514Z,1017.31
2023-10-17T04:20:34.329Z,1017.28
2023-10-17T04:21:34.356Z,1017.26
2023-10-17T04:22:34.323Z,1017.26
2023-10-17T04:23:34.322Z,1017.29
2023-10-17T04:24:34.349Z,1017.31
2023-10-17T04:25:34.332Z,1017.30
2023-10-17T04:26:34.320Z,1017.30
2023-10-17T04:27:34.431Z,1017.27
2023-10-17T04:28:34.302Z,1017.23
2023-10-17T04:29:34.307Z,1017.25
2023-10-17T04:30:34.366Z,1017.28
2023-10-17T04:31:34.328Z,1017.32
2023-10-17T04:32:34.306Z,1017.33
2023-10-17T04:33:34.348Z,1017.31
2023-10-17T04:34:34.281Z,1017.31
2023-10-17T04:35:34.290Z,1017.32
2023-10-17T04:36:34.287Z,1017.28
2023-10-17T04:37:34.285Z,1017.28
2023-10-17T04:38:34.276Z,1017.27
2023-10-17T04:39:34.312Z,1017.26
2023-10-17T04:40:34.288Z,1017.24
2023-10-17T04:41:34.266Z,1017.29
2023-10-17T04:42:34.293Z,1017.32
2023-10-17T04:43:34.262Z,1017.34
2023-10-17T04:44:34.252Z,1017.32
2023-10-17T04:45:34.359Z,1017.35
2023-10-17T04:46:34.247Z,1017.34
2023-10-17T04:47:34.269Z,1017.35
2023-10-17T04:48:34.282Z,1017.41
2023-10-17T04:49:34.268Z,1017.41
2023-10-17T04:50:34.232Z,1017.43
2023-10-17T04:51:34.363Z,1017.40
2023-10-17T04:52:34.231Z,1017.38
2023-10-17T04:53:34.334Z,1017.38
2023-10-17T04:54:34.232Z,1017.38
2023-10-17T04:55:34.222Z,1017.40
2023-10-17T04:56:34.214Z,1017.41
2023-10-17T04:57:34.253Z,1017.44
2023-10-17T04:58:34.205Z,1017.47
2023-10-17T04:59:34.207Z,1017.50
2023-10-17T05:00:34.269Z,1017.47
2023-10-17T05:01:34.268Z,1017.49
2023-10-17T05:02:34.202Z,1017.47
2023-10-17T05:03:34.447Z,1017.45
2023-10-17T05:04:34.273Z,1017.46
2023-10-17T05:05:34.215Z,1017.42
2023-10-17T05:06:34.227Z,1017.45
2023-10-17T05:07:34.182Z,1017.46
2023-10-17T05:08:34.201Z,1017.43
2023-10-17T05:09:35.195Z,1017.41
2023-10-17T05:10:34.171Z,1017.41
2023-10-17T05:11:34.236Z,1017.42
2023-10-17T05:12:34.220Z,1017.46
2023-10-17T05:13:34.169Z,1017.52
2023-10-17T05:14:34.191Z,1017.54
2023-10-17T05:15:34.289Z,1017.52
2023-10-17T05:16:34.153Z,1017.58
2023-10-17T05:17:34.190Z,1017.58
2023-10-17T05:18:34.239Z,1017.57
2023-10-17T05:19:34.145Z,1017.61
2023-10-17T05:20:34.142Z,1017.57
2023-10-17T05:21:34.208Z,1017.59
2023-10-17T05:22:34.135Z,1017.53
2023-10-17T05:23:34.127Z,1017.59
2023-10-17T05:24:34.155Z,1017.62
2023-10-17T05:25:34.135Z,1017.61
2023-10-17T05:26:34.119Z,1017.58
2023-10-17T05:27:34.139Z,1017.61
2023-10-17T05:28:34.126Z,1017.57
2023-10-17T05:29:34.104Z,1017.62
2023-10-17T05:30:34.161Z,1017.63
2023-10-17T05:31:34.147Z,1017.68
2023-10-17T05:32:34.123Z,1017.69
2023-10-17T05:33:34.150Z,1017.71
2023-10-17T05:34:34.121Z,1017.73
2023-10-17T05:35:34.104Z,1017.72
2023-10-17T05:36:34.123Z,1017.73
2023-10-17T05:37:34.109Z,1017.73
2023-10-17T05:38:34.085Z,1017.78
2023-10-17T05:39:34.115Z,1017.83
2023-10-17T05:40:34.103Z,1017.74
2023-10-17T05:41:34.075Z,1017.78
2023-10-17T05:42:34.105Z,1017.72
2023-10-17T05:43:34.065Z,1017.73
2023-10-17T05:44:34.069Z,1017.74
2023-10-17T05:45:34.123Z,1017.72
2023-10-17T05:46:34.076Z,1017.71
2023-10-17T05:47:34.108Z,1017.71
2023-10-17T05:48:34.071Z,1017.71
2023-10-17T05:49:34.075Z,1017.72
2023-10-17T05:50:34.048Z,1017.77
2023-10-17T05:51:34.146Z,1017.80
2023-10-17T05:52:34.042Z,1017.77
2023-10-17T05:53:34.064Z,1017.78
2023-10-17T05:54:59.710Z,1017.82
2023-10-17T05:55:35.319Z,1017.84
2023-10-17T05:56:34.054Z,1017.90
2023-10-17T05:57:34.067Z,1017.89
2023-10-17T05:58:34.022Z,1017.84
2023-10-17T05:59:34.030Z,1017.84
2023-10-17T06:00:34.101Z,1017.85
2023-10-17T06:01:34.039Z,1017.84
2023-10-17T06:02:34.074Z,1017.85
2023-10-17T06:03:34.122Z,1017.89
2023-10-17T06:04:34.196Z,1017.90
2023-10-17T06:05:34.004Z,1017.87
2023-10-17T06:06:34.084Z,1017.88
2023-10-17T06:07:33.997Z,1017.86
2023-10-17T06:08:34.009Z,1017.87
2023-10-17T06:09:34.081Z,1017.87
2023-10-17T06:10:34.091Z,1017.87
2023-10-17T06:11:33.987Z,1017.89
2023-10-17T06:12:34.021Z,1017.91
2023-10-17T06:13:33.979Z,1017.93
2023-10-17T06:14:33.978Z,1017.95
2023-10-17T06:15:34.011Z,1017.99
2023-10-17T06:16:34.001Z,1017.97
2023-10-17T06:17:34.050Z,1018.00
2023-10-17T06:18:34.012Z,1018.02
2023-10-17T06:19:34.018Z,1018.05
2023-10-17T06:20:33.960Z,1018.03
2023-10-17T06:21:33.964Z,1018.05
2023-10-17T06:22:33.955Z,1018.08
2023-10-17T06:23:33.949Z,1018.05
2023-10-17T06:24:33.975Z,1018.05
2023-10-17T06:25:33.970Z,1018.04
2023-10-17T06:26:33.949Z,1018.02
2023-10-17T06:27:34.043Z,1018.06
2023-10-17T06:28:33.938Z,1018.07
2023-10-17T06:29:35.740Z,1018.08
2023-10-17T06:30:34.016Z,1018.03
2023-10-17T06:31:34.003Z,1018.11
2023-10-17T06:32:33.955Z,1018.08
2023-10-17T06:33:33.965Z,1018.08
2023-10-17T06:34:33.950Z,1018.08
2023-10-17T06:35:33.920Z,1018.07
2023-10-17T06:36:33.949Z,1018.12
2023-10-17T06:37:33.911Z,1018.14
2023-10-17T06:38:35.335Z,1018.13
2023-10-17T06:39:33.919Z,1018.10
2023-10-17T06:40:33.907Z,1018.17
2023-10-17T06:41:33.917Z,1018.08
2023-10-17T06:42:35.990Z,1018.07
2023-10-17T06:43:33.893Z,1018.06
2023-10-17T06:44:33.892Z,1018.07
2023-10-17T06:45:33.900Z,1018.11
2023-10-17T06:46:33.926Z,1018.15
2023-10-17T06:47:33.894Z,1018.13
2023-10-17T06:48:34.164Z,1018.14
2023-10-17T06:49:33.880Z,1018.15
2023-10-17T06:50:33.876Z,1018.14
2023-10-17T06:51:33.896Z,1018.16
2023-10-17T06:52:33.873Z,1018.16
2023-10-17T06:53:33.878Z,1018.16
2023-10-17T06:54:33.909Z,1018.15
2023-10-17T06:55:33.864Z,1018.15
2023-10-17T06:56:33.862Z,1018.15
2023-10-17T06:57:33.913Z,1018.20
2023-10-17T06:58:33.943Z,1018.21
2023-10-17T06:59:33.854Z,1018.21
2023-10-17T07:00:33.887Z,1018.19
2023-10-17T07:01:33.875Z,1018.24
2023-10-17T07:02:33.883Z,1018.22
2023-10-17T07:03:33.944Z,1018.21
2023-10-17T07:04:33.958Z,1018.23
2023-10-17T07:05:33.832Z,1018.26
2023-10-17T07:06:33.870Z,1018.28
2023-10-17T07:07:33.825Z,1018.29
2023-10-17T07:08:33.829Z,1018.28
2023-10-17T07:09:33.851Z,1018.33
2023-10-17T07:10:33.827Z,1018.38
2023-10-17T07:11:33.827Z,1018.39
2023-10-17T07:12:33.853Z,1018.38
2023-10-17T07:13:33.838Z,1018.35
2023-10-17T07:14:33.815Z,1018.39
2023-10-17T07:15:33.828Z,1018.36
2023-10-17T07:16:33.923Z,1018.33
2023-10-17T07:17:33.842Z,1018.32
2023-10-17T07:18:33.909Z,1018.33
2023-10-17T07:19:34.263Z,1018.36
2023-10-17T07:20:33.801Z,1018.33
2023-10-17T07:21:33.811Z,1018.42
2023-10-17T07:22:33.791Z,1018.41
2023-10-17T07:23:33.789Z,1018.42
2023-10-17T07:24:33.818Z,1018.42
2023-10-17T07:25:33.783Z,1018.42
2023-10-17T07:26:33.790Z,1018.40
2023-10-17T07:27:33.805Z,1018.42
2023-10-17T07:28:33.779Z,1018.41
2023-10-17T07:29:33.797Z,1018.40
2023-10-17T07:30:33.857Z,1018.41
2023-10-17T07:31:33.793Z,1018.43
2023-10-17T07:32:34.009Z,1018.40
2023-10-17T07:33:33.794Z,1018.41
2023-10-17T07:34:33.768Z,1018.38
2023-10-17T07:35:33.763Z,1018.42
2023-10-17T07:36:33.796Z,1018.36
2023-10-17T07:37:33.752Z,1018.35
2023-10-17T07:38:33.753Z,1018.33
2023-10-17T07:39:33.817Z,1018.35
2023-10-17T07:40:33.757Z,1018.35
2023-10-17T07:41:33.752Z,1018.32
2023-10-17T07:42:33.812Z,1018.34
2023-10-17T07:43:33.744Z,1018.32
2023-10-17T07:44:33.737Z,1018.35
2023-10-17T07:45:33.780Z,1018.33
2023-10-17T07:46:33.780Z,1018.37
2023-10-17T07:47:33.748Z,1018.41
2023-10-17T07:48:33.759Z,1018.44
2023-10-17T07:49:33.720Z,1018.42
2023-10-17T07:50:33.728Z,1018.40
2023-10-17T07:51:33.776Z,1018.43
2023-10-17T07:52:33.717Z,1018.41
2023-10-17T07:53:34.087Z,1018.38
2023-10-17T07:54:33.747Z,1018.38
2023-10-17T07:55:33.717Z,1018.35
2023-10-17T07:56:33.710Z,1018.36
2023-10-17T07:57:33.724Z,1018.35
2023-10-17T07:58:33.700Z,1018.34
2023-10-17T07:59:33.706Z,1018.37
2023-10-17T08:00:33.742Z,1018.37
2023-10-17T08:01:33.779Z,1018.37
2023-10-17T08:02:33.702Z,1018.35
2023-10-17T08:03:33.812Z,1018.31
2023-10-17T08:04:33.782Z,1018.34
2023-10-17T08:05:33.697Z,1018.32
2023-10-17T08:06:33.700Z,1018.37
2023-10-17T08:07:33.688Z,1018.43
2023-10-17T08:08:33.687Z,1018.46
2023-10-17T08:09:39.644Z,1018.47
2023-10-17T08:10:33.686Z,1018.50
2023-10-17T08:11:33.680Z,1018.48
2023-10-17T08:12:33.681Z,1018.50
2023-10-17T08:13:33.675Z,1018.53
2023-10-17T08:14:33.672Z,1018.55
2023-10-17T08:15:33.700Z,1018.59
2023-10-17T08:16:33.777Z,1018.53
2023-10-17T08:17:33.735Z,1018.58
2023-10-17T08:18:33.729Z,1018.60
2023-10-17T08:19:33.724Z,1018.61
2023-10-17T08:20:33.665Z,1018.58
2023-10-17T08:21:33.746Z,1018.53
2023-10-17T08:22:33.664Z,1018.58
2023-10-17T08:23:33.659Z,1018.58
2023-10-17T08:24:33.668Z,1018.55
2023-10-17T08:25:33.653Z,1018.55
2023-10-17T08:26:34.062Z,1018.51
2023-10-17T08:27:33.711Z,1018.56
2023-10-17T08:28:33.703Z,1018.59
2023-10-17T08:29:33.645Z,1018.53
2023-10-17T08:30:45.162Z,1018.52
2023-10-17T08:31:33.717Z,1018.53
2023-10-17T08:32:33.701Z,1018.56
2023-10-17T08:33:33.695Z,1018.53
2023-10-17T08:34:33.645Z,1018.54
2023-10-17T08:35:33.638Z,1018.57
2023-10-17T08:36:33.705Z,1018.56
2023-10-17T08:37:33.642Z,1018.58
2023-10-17T08:38:33.638Z,1018.54
2023-10-17T08:39:33.659Z,1018.56
2023-10-17T08:40:33.904Z,1018.54
2023-10-17T08:41:33.632Z,1018.54
2023-10-17T08:42:33.662Z,1018.54
2023-10-17T08:43:33.632Z,1018.53
2023-10-17T08:44:33.632Z,1018.56
2023-10-17T08:45:33.657Z,1018.57
2023-10-17T08:46:33.670Z,1018.60
2023-10-17T08:47:33.841Z,1018.62
2023-10-17T08:48:33.675Z,1018.58
2023-10-17T08:49:33.644Z,1018.57
2023-10-17T08:50:33.628Z,1018.55
2023-10-17T08:51:33.670Z,1018.52
2023-10-17T08:52:33.620Z,1018.56
2023-10-17T08:53:33.622Z,1018.56
2023-10-17T08:54:33.666Z,1018.59
2023-10-17T08:55:33.618Z,1018.60
2023-10-17T08:56:33.619Z,1018.60
2023-10-17T08:57:33.691Z,1018.60
2023-10-17T08:58:33.622Z,1018.60
2023-10-17T08:59:33.612Z,1018.57
2023-10-17T09:00:33.657Z,1018.60
2023-10-17T09:01:33.696Z,1018.61
2023-10-17T09:02:33.663Z,1018.66
2023-10-17T09:03:33.679Z,1018.68
2023-10-17T09:04:33.672Z,1018.68
2023-10-17T09:05:33.643Z,1018.69
2023-10-17T09:06:33.778Z,1018.68
2023-10-17T09:07:33.606Z,1018.70
2023-10-17T09:08:33.620Z,1018.74
2023-10-17T09:09:33.639Z,1018.65
2023-10-17T09:10:33.612Z,1018.64
2023-10-17T09:11:33.608Z,1018.63
2023-10-17T09:12:33.634Z,1018.59
2023-10-17T09:13:33.626Z,1018.64
2023-10-17T09:14:33.605Z,1018.59
2023-10-17T09:15:33.664Z,1018.64
2023-10-17T09:16:33.625Z,1018.66
2023-10-17T09:17:33.621Z,1018.75
2023-10-17T09:18:33.624Z,1018.96
2023-10-17T09:19:33.598Z,1018.94
2023-10-17T09:20:33.609Z,1018.91
2023-10-17T09:21:33.662Z,1018.85
2023-10-17T09:22:33.608Z,1018.80
2023-10-17T09:23:33.596Z,1018.93
2023-10-17T09:24:34.011Z,1018.85
2023-10-17T09:25:33.599Z,1018.79
2023-10-17T09:26:33.609Z,1018.62
2023-10-17T09:27:33.682Z,1018.71
2023-10-17T09:28:33.611Z,1018.80
2023-10-17T09:29:33.596Z,1018.79
2023-10-17T09:30:33.678Z,1018.75
2023-10-17T09:31:33.705Z,1018.73
2023-10-17T09:32:33.652Z,1018.76
2023-10-17T09:33:33.740Z,1018.76
2023-10-17T09:34:33.586Z,1018.83
2023-10-17T09:35:33.609Z,1018.73
2023-10-17T09:36:33.648Z,1018.78
2023-10-17T09:37:33.718Z,1018.85
2023-10-17T09:38:33.594Z,1018.82
2023-10-17T09:39:38.276Z,1018.57
2023-10-17T09:40:33.596Z,1018.46
2023-10-17T09:41:33.589Z,1018.47
2023-10-17T09:42:33.642Z,1018.42
2023-10-17T09:43:33.592Z,1018.44
2023-10-17T09:44:33.613Z,1018.41
2023-10-17T09:45:35.320Z,1018.38
2023-10-17T09:46:33.784Z,1018.39
2023-10-17T09:47:33.781Z,1018.34
2023-10-17T09:48:33.731Z,1018.38
2023-10-17T09:49:34.019Z,1018.37
2023-10-17T09:50:33.584Z,1018.37
2023-10-17T09:51:33.672Z,1018.37
2023-10-17T09:52:33.577Z,1018.37
2023-10-17T09:53:33.602Z,1018.42
2023-10-17T09:54:33.616Z,1018.37
2023-10-17T09:55:33.588Z,1018.37
2023-10-17T09:56:33.578Z,1018.38
2023-10-17T09:57:33.646Z,1018.37
2023-10-17T09:58:33.588Z,1018.43
2023-10-17T09:59:33.576Z,1018.38
2023-10-17T10:00:33.604Z,1018.39
2023-10-17T10:01:33.629Z,1018.34
2023-10-17T10:02:33.632Z,1018.31
2023-10-17T10:03:33.712Z,1018.32
2023-10-17T10:04:33.695Z,1018.31
2023-10-17T10:05:33.632Z,1018.34
2023-10-17T10:06:34.078Z,1018.29
2023-10-17T10:07:33.567Z,1018.27
2023-10-17T10:08:33.597Z,1018.29
2023-10-17T10:09:33.628Z,1018.24
2023-10-17T10:10:33.590Z,1018.22
2023-10-17T10:11:33.580Z,1018.24
2023-10-17T10:12:33.634Z,1018.21
2023-10-17T10:13:33.570Z,1018.20
2023-10-17T10:14:33.577Z,1018.18
2023-10-17T10:15:33.580Z,1018.16
2023-10-17T10:16:33.611Z,1018.12
2023-10-17T10:17:33.622Z,1018.07
2023-10-17T10:18:33.594Z,1018.08
2023-10-17T10:19:33.563Z,1018.07
2023-10-17T10:20:33.567Z,1018.05
2023-10-17T10:21:33.606Z,1018.02
2023-10-17T10:22:33.566Z,1018.04
2023-10-17T10:23:45.551Z,1018.00
2023-10-17T10:24:36.345Z,1017.98
2023-10-17T10:25:33.597Z,1018.02
2023-10-17T10:26:33.563Z,1018.01
2023-10-17T10:27:33.647Z,1017.96
2023-10-17T10:28:33.559Z,1017.99
2023-10-17T10:29:33.566Z,1017.96
2023-10-17T10:30:33.592Z,1017.99
2023-10-17T10:31:33.559Z,1018.00
2023-10-17T10:32:33.595Z,1017.98
2023-10-17T10:33:33.578Z,1017.94
2023-10-17T10:34:33.571Z,1018.01
2023-10-17T10:35:33.757Z,1017.98
2023-10-17T10:36:33.594Z,1017.97
2023-10-17T10:37:33.566Z,1017.95
2023-10-17T10:38:33.547Z,1017.92
2023-10-17T10:39:33.576Z,1017.93
2023-10-17T10:40:33.560Z,1017.95
2023-10-17T10:41:33.597Z,1017.92
2023-10-17T10:42:33.561Z,1017.93
2023-10-17T10:43:33.560Z,1017.90
2023-10-17T10:44:33.549Z,1017.94
2023-10-17T10:45:33.998Z,1017.91
2023-10-17T10:46:33.661Z,1017.94
2023-10-17T10:47:33.652Z,1017.90
2023-10-17T10:48:33.747Z,1017.90
2023-10-17T10:49:33.553Z,1017.89
2023-10-17T10:50:33.544Z,1017.87
2023-10-17T10:51:33.691Z,1017.90
2023-10-17T10:52:33.572Z,1017.89
2023-10-17T10:53:33.610Z,1017.91
2023-10-17T10:54:33.571Z,1017.91
2023-10-17T10:55:33.540Z,1017.95
2023-10-17T10:56:33.543Z,1017.90
2023-10-17T10:57:33.688Z,1017.92
2023-10-17T10:58:33.565Z,1017.92
2023-10-17T10:59:33.550Z,1017.90
2023-10-17T11:00:33.619Z,1017.91
2023-10-17T11:01:33.561Z,1017.86
2023-10-17T11:02:33.554Z,1017.87
2023-10-17T11:03:33.726Z,1017.84
2023-10-17T11:04:33.656Z,1017.82
2023-10-17T11:05:33.534Z,1017.82
2023-10-17T11:06:33.555Z,1017.83
2023-10-17T11:07:33.535Z,1017.83
2023-10-17T11:08:33.533Z,1017.82
2023-10-17T11:09:33.597Z,1017.82
2023-10-17T11:10:33.527Z,1017.81
2023-10-17T11:11:33.537Z,1017.80
2023-10-17T11:12:33.568Z,1017.76
2023-10-17T11:13:33.558Z,1017.76
2023-10-17T11:14:33.532Z,1017.82
2023-10-17T11:15:33.585Z,1017.77
2023-10-17T11:16:33.602Z,1017.80
2023-10-17T11:17:33.564Z,1017.73
2023-10-17T11:18:33.555Z,1017.75
2023-10-17T11:19:33.527Z,1017.77
2023-10-17T11:20:33.515Z,1017.70
2023-10-17T11:21:33.554Z,1017.72
2023-10-17T11:22:33.525Z,1017.73
2023-10-17T11:23:33.542Z,1017.71
2023-10-17T11:24:33.596Z,1017.72
2023-10-17T11:25:33.526Z,1017.67
2023-10-17T11:26:33.543Z,1017.72
2023-10-17T11:27:33.581Z,1017.67
2023-10-17T11:28:33.512Z,1017.73
2023-10-17T11:29:33.535Z,1017.72
2023-10-17T11:30:33.527Z,1017.74
2023-10-17T11:31:33.572Z,1017.71
2023-10-17T11:32:33.515Z,1017.74
2023-10-17T11:33:33.547Z,1017.72
2023-10-17T11:34:33.527Z,1017.70
2023-10-17T11:35:33.513Z,1017.67
2023-10-17T11:36:33.546Z,1017.63
2023-10-17T11:37:33.514Z,1017.69
2023-10-17T11:38:43.304Z,1017.63
2023-10-17T11:39:33.548Z,1017.65
2023-10-17T11:40:33.522Z,1017.64
2023-10-17T11:41:33.500Z,1017.58
2023-10-17T11:42:33.540Z,1017.62
2023-10-17T11:43:33.502Z,1017.63
2023-10-17T11:44:33.508Z,1017.62
2023-10-17T11:45:35.367Z,1017.60
2023-10-17T11:46:33.711Z,1017.57
2023-10-17T11:47:33.528Z,1017.59
2023-10-17T11:48:33.510Z,1017.57
2023-10-17T11:49:33.510Z,1017.57
2023-10-17T11:50:33.500Z,1017.53
2023-10-17T11:51:33.523Z,1017.49
2023-10-17T11:52:33.486Z,1017.47
2023-10-17T11:53:33.493Z,1017.49
2023-10-17T11:54:35.244Z,1017.50
2023-10-17T11:55:33.524Z,1017.45
2023-10-17T11:56:33.492Z,1017.45
2023-10-17T11:57:33.576Z,1017.44
2023-10-17T11:58:33.484Z,1017.42
2023-10-17T11:59:33.491Z,1017.41
2023-10-17T12:00:33.539Z,1017.44
2023-10-17T12:01:33.541Z,1017.42
2023-10-17T12:02:33.494Z,1017.41
2023-10-17T12:03:33.563Z,1017.44
2023-10-17T12:04:33.547Z,1017.42
2023-10-17T12:05:33.485Z,1017.46